createdAt,value
2023-01-03T00:01:55.759Z,102374.03
2023-01-03T00:04:23.074Z,102377.09
2023-01-03T00:06:53.604Z,102376.25
2023-01-03T00:09:24.510Z,102367.06
2023-01-03T00:12:12.761Z,102374.13
2023-01-03T00:14:42.832Z,102373.38
2023-01-03T00:17:11.895Z,102365.22
2023-01-03T00:19:45.647Z,102365.34
2023-01-03T00:22:15.984Z,102369.88
2023-01-03T00:24:47.986Z,102363.13
2023-01-03T00:27:16.362Z,102371.53
2023-01-03T00:29:43.995Z,102369.75
2023-01-03T00:32:11.904Z,102370.81
2023-01-03T00:34:39.202Z,102366.81
2023-01-03T00:37:06.671Z,102361.94
2023-01-03T00:39:34.207Z,102351.13
2023-01-03T00:42:01.347Z,102351.53
2023-01-03T00:44:28.442Z,102349.56
2023-01-03T00:46:55.691Z,102358.38
2023-01-03T00:49:23.048Z,102355.00
2023-01-03T00:51:50.679Z,102358.50
2023-01-03T00:54:17.761Z,102349.94
2023-01-03T00:56:47.130Z,102355.94
2023-01-03T00:59:16.515Z,102352.59
2023-01-03T01:01:50.533Z,102352.91
2023-01-03T01:04:26.371Z,102350.28
2023-01-03T01:06:58.139Z,102350.69
2023-01-03T01:09:37.473Z,102356.91
2023-01-03T01:12:07.058Z,102359.91
2023-01-03T01:14:34.200Z,102353.31
2023-01-03T01:17:08.054Z,102353.94
2023-01-03T01:19:41.897Z,102353.19
2023-01-03T01:22:09.811Z,102354.91
2023-01-03T01:24:37.346Z,102360.72
2023-01-03T01:27:04.611Z,102365.19
2023-01-03T01:29:31.595Z,102360.34
2023-01-03T01:31:58.571Z,102355.13
2023-01-03T01:34:25.579Z,102363.75
2023-01-03T01:36:53.023Z,102358.88
2023-01-03T01:39:24.550Z,102366.78
2023-01-03T01:42:19.410Z,102353.59
2023-01-03T01:44:47.235Z,102356.06
2023-01-03T01:47:28.927Z,102363.81
2023-01-03T01:50:22.627Z,102353.78
2023-01-03T01:53:15.402Z,102358.41
2023-01-03T01:55:53.126Z,102358.69
2023-01-03T01:58:23.919Z,102354.63
2023-01-03T02:00:50.985Z,102353.88
2023-01-03T02:03:18.080Z,102349.53
2023-01-03T02:05:51.797Z,102343.97
2023-01-03T02:08:19.415Z,102345.63
2023-01-03T02:11:11.903Z,102349.63
2023-01-03T02:14:07.844Z,102355.50
2023-01-03T02:16:50.612Z,102354.72
2023-01-03T02:19:48.386Z,102352.25
2023-01-03T02:23:10.630Z,102354.22
2023-01-03T02:26:25.442Z,102350.72
2023-01-03T02:29:19.209Z,102349.81
2023-01-03T02:32:02.543Z,102354.84
2023-01-03T02:34:41.642Z,102342.84
2023-01-03T02:37:14.300Z,102339.91
2023-01-03T02:40:02.260Z,102345.06
2023-01-03T02:43:01.869Z,102334.53
2023-01-03T02:46:04.358Z,102345.03
2023-01-03T02:48:55.061Z,102344.38
2023-01-03T02:51:46.087Z,102340.53
2023-01-03T02:54:22.186Z,102337.06
2023-01-03T02:57:21.180Z,102341.47
2023-01-03T02:59:53.052Z,102339.25
2023-01-03T03:02:23.696Z,102341.00
2023-01-03T03:04:55.736Z,102342.94
2023-01-03T03:07:31.646Z,102339.19
2023-01-03T03:10:17.371Z,102334.50
2023-01-03T03:13:07.567Z,102327.78
2023-01-03T03:16:05.955Z,102324.84
2023-01-03T03:18:50.653Z,102324.47
2023-01-03T03:21:39.054Z,102318.03
2023-01-03T03:24:35.998Z,102315.47
2023-01-03T03:27:28.564Z,102308.38
2023-01-03T03:29:58.819Z,102308.56
2023-01-03T03:32:28.733Z,102315.25
2023-01-03T03:34:59.602Z,102315.75
2023-01-03T03:37:28.064Z,102308.91
2023-01-03T03:40:14.502Z,102301.88
2023-01-03T03:43:00.280Z,102304.13
2023-01-03T03:45:35.783Z,102312.78
2023-01-03T03:48:09.674Z,102300.66
2023-01-03T03:50:51.529Z,102309.13
2023-01-03T03:53:24.320Z,102303.34
2023-01-03T03:56:15.815Z,102299.53
2023-01-03T03:58:48.405Z,102283.78
2023-01-03T04:01:20.294Z,102289.84
2023-01-03T04:03:53.710Z,102289.44
2023-01-03T04:06:34.072Z,102293.00
2023-01-03T04:09:01.507Z,102281.66
2023-01-03T04:11:28.602Z,102284.25
2023-01-03T04:13:55.633Z,102277.75
2023-01-03T04:16:23.643Z,102281.16
2023-01-03T04:18:50.604Z,102280.97
2023-01-03T04:21:21.011Z,102277.66
2023-01-03T04:23:48.627Z,102274.00
2023-01-03T04:26:17.159Z,102271.28
2023-01-03T04:28:44.177Z,102266.41
2023-01-03T04:31:11.325Z,102275.50
2023-01-03T04:33:38.381Z,102286.84
2023-01-03T04:36:05.755Z,102287.94
2023-01-03T04:38:32.729Z,102293.19
2023-01-03T04:41:08.261Z,102283.91
2023-01-03T04:43:53.933Z,102295.88
2023-01-03T04:46:22.143Z,102296.50
2023-01-03T04:48:49.530Z,102301.19
2023-01-03T04:51:16.568Z,102295.56
2023-01-03T04:53:43.541Z,102286.03
2023-01-03T04:56:10.539Z,102303.25
2023-01-03T04:58:37.648Z,102296.34
2023-01-03T05:01:08.293Z,102300.00
2023-01-03T05:03:38.096Z,102290.63
2023-01-03T05:06:08.583Z,102302.50
2023-01-03T05:08:35.964Z,102300.97
2023-01-03T05:11:03.549Z,102301.44
2023-01-03T05:13:31.088Z,102304.63
2023-01-03T05:16:09.202Z,102298.38
2023-01-03T05:18:36.895Z,102291.50
2023-01-03T05:21:35.267Z,102286.41
2023-01-03T05:24:20.915Z,102289.88
2023-01-03T05:26:48.639Z,102287.09
2023-01-03T05:29:19.419Z,102280.78
2023-01-03T05:31:46.776Z,102284.91
2023-01-03T05:34:14.112Z,102287.75
2023-01-03T05:36:41.272Z,102296.16
2023-01-03T05:39:08.347Z,102300.16
2023-01-03T05:41:53.740Z,102292.25
2023-01-03T05:44:20.876Z,102299.59
2023-01-03T05:46:48.850Z,102307.03
2023-01-03T05:49:15.874Z,102305.34
2023-01-03T05:51:42.823Z,102305.22
2023-01-03T05:54:15.930Z,102309.25
2023-01-03T05:56:43.501Z,102313.16
2023-01-03T05:59:11.343Z,102315.94
2023-01-03T06:01:38.874Z,102309.19
2023-01-03T06:04:05.925Z,102315.22
2023-01-03T06:06:32.946Z,102322.53
2023-01-03T06:09:00.520Z,102323.13
2023-01-03T06:11:27.785Z,102311.31
2023-01-03T06:13:54.744Z,102314.00
2023-01-03T06:16:40.763Z,102313.06
2023-01-03T06:19:08.455Z,102315.94
2023-01-03T06:21:36.465Z,102319.78
2023-01-03T06:24:04.160Z,102324.59
2023-01-03T06:26:31.258Z,102329.41
2023-01-03T06:29:00.842Z,102334.44
2023-01-03T06:31:28.288Z,102341.19
2023-01-03T06:33:55.372Z,102334.16
2023-01-03T06:36:24.029Z,102334.41
2023-01-03T06:38:50.992Z,102340.94
2023-01-03T06:41:18.159Z,102335.19
2023-01-03T06:43:45.418Z,102327.22
2023-01-03T06:46:34.344Z,102339.47
2023-01-03T06:49:20.135Z,102335.78
2023-01-03T06:52:07.380Z,102348.00
2023-01-03T06:54:37.791Z,102358.75
2023-01-03T06:57:05.683Z,102350.84
2023-01-03T06:59:32.785Z,102347.97
2023-01-03T07:01:59.948Z,102353.44
2023-01-03T07:04:27.819Z,102358.94
2023-01-03T07:06:55.148Z,102361.75
2023-01-03T07:09:22.186Z,102353.22
2023-01-03T07:11:49.201Z,102355.72
2023-01-03T07:14:17.457Z,102354.63
2023-01-03T07:16:47.819Z,102354.06
2023-01-03T07:19:18.722Z,102361.22
2023-01-03T07:21:46.234Z,102348.50
2023-01-03T07:24:16.078Z,102348.84
2023-01-03T07:26:43.037Z,102361.38
2023-01-03T07:29:11.020Z,102362.25
2023-01-03T07:31:41.863Z,102365.94
2023-01-03T07:34:10.073Z,102366.78
2023-01-03T07:36:37.445Z,102367.91
2023-01-03T07:39:04.692Z,102366.72
2023-01-03T07:41:50.480Z,102374.25
2023-01-03T07:44:17.465Z,102368.56
2023-01-03T07:46:44.607Z,102354.97
2023-01-03T07:49:12.611Z,102368.47
2023-01-03T07:51:39.999Z,102371.72
2023-01-03T07:54:07.731Z,102372.94
2023-01-03T07:56:35.575Z,102377.75
2023-01-03T07:59:02.699Z,102390.81
2023-01-03T08:01:30.699Z,102386.72
2023-01-03T08:03:58.122Z,102390.31
2023-01-03T08:06:25.682Z,102392.91
2023-01-03T08:09:11.954Z,102393.78
2023-01-03T08:11:58.137Z,102387.63
2023-01-03T08:14:26.986Z,102388.53
2023-01-03T08:16:55.718Z,102390.78
2023-01-03T08:19:23.950Z,102403.06
2023-01-03T08:21:51.945Z,102407.09
2023-01-03T08:24:19.238Z,102407.38
2023-01-03T08:26:46.349Z,102415.72
2023-01-03T08:29:13.325Z,102410.56
2023-01-03T08:31:52.975Z,102414.22
2023-01-03T08:34:27.004Z,102403.38
2023-01-03T08:37:02.148Z,102413.38
2023-01-03T08:39:39.532Z,102406.00
2023-01-03T08:42:09.286Z,102394.56
2023-01-03T08:44:37.299Z,102401.25
2023-01-03T08:47:08.524Z,102400.47
2023-01-03T08:49:36.520Z,102407.41
2023-01-03T08:52:04.285Z,102411.25
2023-01-03T08:54:31.379Z,102409.19
2023-01-03T08:56:58.416Z,102404.72
2023-01-03T08:59:25.432Z,102412.84
2023-01-03T09:01:52.541Z,102408.09
2023-01-03T09:04:19.736Z,102411.81
2023-01-03T09:06:46.734Z,102413.31
2023-01-03T09:09:13.664Z,102409.13
2023-01-03T09:11:44.866Z,102404.47
2023-01-03T09:14:11.844Z,102405.91
2023-01-03T09:16:41.680Z,102402.22
2023-01-03T09:19:10.901Z,102416.06
2023-01-03T09:21:37.833Z,102408.69
2023-01-03T09:24:05.336Z,102408.50
2023-01-03T09:26:32.431Z,102393.34
2023-01-03T09:28:59.375Z,102414.69
2023-01-03T09:31:26.404Z,102419.34
2023-01-03T09:33:53.428Z,102412.38
2023-01-03T09:36:23.779Z,102417.19
2023-01-03T09:38:51.220Z,102415.81
2023-01-03T09:41:23.701Z,102421.69
2023-01-03T09:44:04.080Z,102439.53
2023-01-03T09:46:34.263Z,102422.19
2023-01-03T09:49:02.745Z,102423.03
2023-01-03T09:52:01.149Z,102428.75
2023-01-03T09:54:53.623Z,102427.19
2023-01-03T09:57:50.096Z,102417.47
2023-01-03T10:01:00.903Z,102432.22
2023-01-03T10:03:51.121Z,102438.72
2023-01-03T10:06:40.184Z,102430.59
2023-01-03T10:09:36.286Z,102420.94
2023-01-03T10:12:24.018Z,102435.03
2023-01-03T10:15:18.782Z,102438.78
2023-01-03T10:18:33.591Z,102446.47
2023-01-03T10:21:08.421Z,102443.25
2023-01-03T10:23:36.007Z,102434.53
2023-01-03T10:26:11.724Z,102436.34
2023-01-03T10:28:43.183Z,102432.38
2023-01-03T10:31:48.017Z,102436.38
2023-01-03T10:34:15.042Z,102431.31
2023-01-03T10:36:41.990Z,102433.75
2023-01-03T10:39:11.289Z,102429.59
2023-01-03T10:41:47.671Z,102439.59
2023-01-03T10:44:30.027Z,102428.69
2023-01-03T10:47:15.942Z,102441.69
2023-01-03T10:49:47.076Z,102439.78
2023-01-03T10:52:19.993Z,102440.53
2023-01-03T10:54:54.924Z,102440.63
2023-01-03T10:57:44.523Z,102437.22
2023-01-03T11:00:23.846Z,102429.91
2023-01-03T11:02:51.460Z,102427.56
2023-01-03T11:05:25.732Z,102425.56
2023-01-03T11:08:03.353Z,102427.50
2023-01-03T11:10:59.566Z,102415.81
2023-01-03T11:13:41.341Z,102413.22
2023-01-03T11:16:17.832Z,102415.25
2023-01-03T11:19:00.075Z,102415.78
2023-01-03T11:21:46.314Z,102408.59
2023-01-03T11:24:39.547Z,102409.50
2023-01-03T11:27:27.612Z,102404.72
2023-01-03T11:30:25.433Z,102409.22
2023-01-03T11:33:12.334Z,102404.00
2023-01-03T11:36:12.256Z,102409.72
2023-01-03T11:38:54.021Z,102400.63
2023-01-03T11:41:27.164Z,102410.31
2023-01-03T11:44:28.715Z,102400.09
2023-01-03T11:47:48.223Z,102410.38
2023-01-03T11:50:26.372Z,102413.03
2023-01-03T11:53:11.337Z,102397.31
2023-01-03T11:56:09.301Z,102392.97
2023-01-03T11:59:20.738Z,102403.22
2023-01-03T12:02:17.485Z,102402.47
2023-01-03T12:05:10.264Z,102397.13
2023-01-03T12:08:02.051Z,102394.81
2023-01-03T12:10:43.791Z,102394.28
2023-01-03T12:13:56.409Z,102385.25
2023-01-03T12:17:00.739Z,102382.47
2023-01-03T12:19:38.900Z,102373.09
2023-01-03T12:22:29.813Z,102381.63
2023-01-03T12:25:08.491Z,102358.25
2023-01-03T12:27:44.636Z,102365.44
2023-01-03T12:30:31.599Z,102364.72
2023-01-03T12:33:53.793Z,102352.09
2023-01-03T12:36:23.780Z,102346.47
2023-01-03T12:39:11.979Z,102348.22
2023-01-03T12:42:24.253Z,102351.88
2023-01-03T12:45:10.785Z,102347.00
2023-01-03T12:48:11.439Z,102335.16
2023-01-03T12:50:48.346Z,102345.41
2023-01-03T12:53:41.143Z,102340.63
2023-01-03T12:56:43.471Z,102333.34
2023-01-03T13:00:09.998Z,102339.81
2023-01-03T13:03:01.552Z,102326.75
2023-01-03T13:05:52.631Z,102343.13
2023-01-03T13:08:31.508Z,102334.69
2023-01-03T13:11:05.130Z,102324.53
2023-01-03T13:13:33.437Z,102319.31
2023-01-03T13:16:38.052Z,102315.50
2023-01-03T13:19:40.142Z,102313.91
2023-01-03T13:22:20.316Z,102311.19
2023-01-03T13:24:52.579Z,102313.00
2023-01-03T13:27:35.177Z,102306.22
2023-01-03T13:30:08.109Z,102295.19
2023-01-03T13:32:52.395Z,102301.28
2023-01-03T13:35:45.302Z,102287.03
2023-01-03T13:38:26.611Z,102293.16
2023-01-03T13:41:17.994Z,102291.84
2023-01-03T13:43:50.967Z,102294.25
2023-01-03T13:46:24.923Z,102288.69
2023-01-03T13:49:05.740Z,102287.44
2023-01-03T13:51:45.206Z,102289.13
2023-01-03T13:54:15.106Z,102275.19
2023-01-03T13:56:45.080Z,102261.13
2023-01-03T13:59:15.106Z,102265.69
2023-01-03T14:02:02.718Z,102255.28
2023-01-03T14:05:14.446Z,102260.56
2023-01-03T14:08:35.435Z,102263.97
2023-01-03T14:11:49.453Z,102267.66
2023-01-03T14:14:21.799Z,102262.56
2023-01-03T14:16:56.101Z,102263.97
2023-01-03T14:19:32.348Z,102263.50
2023-01-03T14:22:34.842Z,102273.59
2023-01-03T14:25:02.000Z,102257.56
2023-01-03T14:27:39.455Z,102249.13
2023-01-03T14:30:21.869Z,102243.59
2023-01-03T14:32:49.025Z,102242.81
2023-01-03T14:35:39.401Z,102239.44
2023-01-03T14:38:25.564Z,102244.53
2023-01-03T14:40:55.992Z,102253.38
2023-01-03T14:43:31.727Z,102242.56
2023-01-03T14:46:06.340Z,102248.44
2023-01-03T14:48:33.824Z,102240.47
2023-01-03T14:51:03.675Z,102247.44
2023-01-03T14:53:33.557Z,102236.91
2023-01-03T14:56:01.322Z,102229.25
2023-01-03T14:58:47.260Z,102235.75
2023-01-03T15:01:15.541Z,102248.38
2023-01-03T15:03:48.629Z,102236.94
2023-01-03T15:06:32.847Z,102244.91
2023-01-03T15:09:15.013Z,102241.88
2023-01-03T15:11:59.366Z,102245.66
2023-01-03T15:14:37.277Z,102252.72
2023-01-03T15:17:09.727Z,102241.44
2023-01-03T15:19:40.988Z,102233.03
2023-01-03T15:22:15.494Z,102245.31
2023-01-03T15:24:45.723Z,102230.03
2023-01-03T15:27:37.504Z,102230.66
2023-01-03T15:30:32.365Z,102208.28
2023-01-03T15:33:20.011Z,102213.06
2023-01-03T15:35:51.177Z,102211.44
2023-01-03T15:38:35.523Z,102209.06
2023-01-03T15:42:12.363Z,102205.72
2023-01-03T15:44:38.427Z,102200.78
2023-01-03T15:47:08.703Z,102206.28
2023-01-03T15:49:46.337Z,102200.63
2023-01-03T15:52:15.022Z,102199.25
2023-01-03T15:54:44.083Z,102199.78
2023-01-03T15:57:21.202Z,102199.75
2023-01-03T16:00:01.832Z,102199.31
2023-01-03T16:02:30.967Z,102186.13
2023-01-03T16:04:58.318Z,102200.47
2023-01-03T16:07:26.470Z,102191.47
2023-01-03T16:09:53.452Z,102196.59
2023-01-03T16:12:27.984Z,102196.63
2023-01-03T16:14:55.039Z,102190.28
2023-01-03T16:17:28.515Z,102189.38
2023-01-03T16:19:56.719Z,102187.41
2023-01-03T16:22:34.406Z,102195.06
2023-01-03T16:25:02.434Z,102178.78
2023-01-03T16:27:29.416Z,102186.34
2023-01-03T16:29:56.354Z,102188.69
2023-01-03T16:32:28.125Z,102186.88
2023-01-03T16:35:04.696Z,102184.31
2023-01-03T16:37:31.892Z,102179.75
2023-01-03T16:39:59.301Z,102184.00
2023-01-03T16:42:29.398Z,102175.28
2023-01-03T16:44:57.067Z,102179.81
2023-01-03T16:47:30.800Z,102183.63
2023-01-03T16:50:02.020Z,102188.47
2023-01-03T16:52:38.831Z,102192.41
2023-01-03T16:55:23.362Z,102182.03
2023-01-03T16:57:54.448Z,102178.31
2023-01-03T17:00:29.608Z,102164.59
2023-01-03T17:02:59.295Z,102170.13
2023-01-03T17:05:28.695Z,102166.03
2023-01-03T17:08:04.138Z,102172.53
2023-01-03T17:10:41.678Z,102167.53
2023-01-03T17:13:27.042Z,102193.06
2023-01-03T17:15:55.929Z,102177.28
2023-01-03T17:18:26.627Z,102171.22
2023-01-03T17:21:01.282Z,102179.59
2023-01-03T17:23:36.117Z,102173.50
2023-01-03T17:26:03.540Z,102154.44
2023-01-03T17:28:30.875Z,102167.03
2023-01-03T17:30:57.848Z,102153.59
2023-01-03T17:33:30.419Z,102158.56
2023-01-03T17:35:59.096Z,102159.31
2023-01-03T17:38:27.388Z,102161.31
2023-01-03T17:40:56.508Z,102153.22
2023-01-03T17:43:25.124Z,102148.19
2023-01-03T17:46:20.578Z,102156.53
2023-01-03T17:49:08.362Z,102148.38
2023-01-03T17:51:35.524Z,102139.06
2023-01-03T17:54:02.748Z,102148.22
2023-01-03T17:56:30.135Z,102158.28
2023-01-03T17:58:57.462Z,102156.81
2023-01-03T18:01:24.819Z,102144.06
2023-01-03T18:03:52.247Z,102156.91
2023-01-03T18:06:23.731Z,102148.63
2023-01-03T18:08:52.643Z,102153.28
2023-01-03T18:11:23.037Z,102151.97
2023-01-03T18:13:50.264Z,102156.06
2023-01-03T18:16:21.608Z,102157.66
2023-01-03T18:18:49.594Z,102150.94
2023-01-03T18:21:27.940Z,102138.03
2023-01-03T18:24:17.282Z,102135.69
2023-01-03T18:26:50.069Z,102149.22
2023-01-03T18:29:18.156Z,102132.22
2023-01-03T18:31:46.926Z,102132.38
2023-01-03T18:34:14.953Z,102137.81
2023-01-03T18:36:46.437Z,102135.59
2023-01-03T18:39:20.487Z,102130.56
2023-01-03T18:41:47.672Z,102115.41
2023-01-03T18:44:24.171Z,102109.75
2023-01-03T18:46:52.061Z,102111.56
2023-01-03T18:49:19.728Z,102105.84
2023-01-03T18:51:50.422Z,102108.91
2023-01-03T18:54:19.772Z,102090.53
2023-01-03T18:56:46.895Z,102087.81
2023-01-03T18:59:23.037Z,102108.56
2023-01-03T19:01:50.509Z,102106.19
2023-01-03T19:04:18.044Z,102091.50
2023-01-03T19:06:50.678Z,102102.69
2023-01-03T19:09:26.690Z,102087.59
2023-01-03T19:11:54.445Z,102084.63
2023-01-03T19:14:21.730Z,102086.19
2023-01-03T19:16:48.724Z,102084.13
2023-01-03T19:19:15.751Z,102073.00
2023-01-03T19:21:46.447Z,102081.00
2023-01-03T19:24:43.364Z,102087.91
2023-01-03T19:27:23.632Z,102093.25
2023-01-03T19:29:52.569Z,102091.09
2023-01-03T19:32:30.201Z,102087.81
2023-01-03T19:34:57.492Z,102073.25
2023-01-03T19:37:24.441Z,102081.41
2023-01-03T19:39:51.390Z,102077.03
2023-01-03T19:42:40.896Z,102062.56
2023-01-03T19:45:34.931Z,102049.47
2023-01-03T19:48:24.044Z,102036.56
2023-01-03T19:50:53.010Z,102046.94
2023-01-03T19:53:20.219Z,102022.34
2023-01-03T19:55:49.333Z,102027.31
2023-01-03T19:58:29.630Z,102019.63
2023-01-03T20:00:57.281Z,102006.78
2023-01-03T20:03:42.803Z,102008.81
2023-01-03T20:06:17.550Z,102008.81
2023-01-03T20:08:45.509Z,102003.53
2023-01-03T20:11:20.412Z,102018.13
2023-01-03T20:13:47.734Z,102024.00
2023-01-03T20:16:15.748Z,102022.41
2023-01-03T20:18:43.526Z,102018.41
2023-01-03T20:21:22.469Z,102006.97
2023-01-03T20:23:57.573Z,102006.50
2023-01-03T20:26:31.142Z,102014.59
2023-01-03T20:28:59.915Z,102005.97
2023-01-03T20:31:28.123Z,101988.06
2023-01-03T20:33:55.178Z,101984.41
2023-01-03T20:36:26.055Z,101982.28
2023-01-03T20:38:58.017Z,101985.00
2023-01-03T20:41:36.582Z,101990.03
2023-01-03T20:44:07.981Z,101983.13
2023-01-03T20:46:35.708Z,101981.13
2023-01-03T20:49:03.886Z,101968.06
2023-01-03T20:51:31.144Z,101972.13
2023-01-03T20:53:58.116Z,101965.72
2023-01-03T20:56:26.858Z,101947.84
2023-01-03T20:58:53.912Z,101940.59
2023-01-03T21:01:20.930Z,101948.03
2023-01-03T21:03:48.147Z,101947.75
2023-01-03T21:06:18.999Z,101931.56
2023-01-03T21:08:54.941Z,101915.50
2023-01-03T21:11:23.924Z,101922.47
2023-01-03T21:13:51.558Z,101930.78
2023-01-03T21:16:33.913Z,101928.59
2023-01-03T21:19:09.808Z,101925.41
2023-01-03T21:21:36.877Z,101927.09
2023-01-03T21:24:04.969Z,101918.13
2023-01-03T21:26:31.916Z,101902.69
2023-01-03T21:28:59.584Z,101914.41
2023-01-03T21:31:26.935Z,101911.19
2023-01-03T21:33:54.045Z,101912.59
2023-01-03T21:36:28.864Z,101905.44
2023-01-03T21:38:57.184Z,101901.34
2023-01-03T21:41:27.959Z,101914.31
2023-01-03T21:44:00.746Z,101910.28
2023-01-03T21:46:28.084Z,101885.56
2023-01-03T21:48:55.834Z,101887.00
2023-01-03T21:51:35.510Z,101886.06
2023-01-03T21:54:08.407Z,101884.13
2023-01-03T21:56:45.506Z,101885.81
2023-01-03T21:59:17.409Z,101875.09
2023-01-03T22:02:04.285Z,101870.03
2023-01-03T22:04:32.270Z,101862.00
2023-01-03T22:07:01.130Z,101870.00
2023-01-03T22:09:48.126Z,101855.09
2023-01-03T22:12:16.460Z,101864.06
2023-01-03T22:14:45.152Z,101847.75
2023-01-03T22:17:12.254Z,101845.44
2023-01-03T22:19:39.254Z,101852.72
2023-01-03T22:22:06.251Z,101853.53
2023-01-03T22:24:33.239Z,101823.41
2023-01-03T22:27:00.154Z,101834.78
2023-01-03T22:29:27.096Z,101828.41
2023-01-03T22:31:54.074Z,101821.28
2023-01-03T22:34:21.052Z,101820.97
2023-01-03T22:36:48.440Z,101823.47
2023-01-03T22:39:15.404Z,101817.84
2023-01-03T22:41:42.340Z,101805.16
2023-01-03T22:44:10.621Z,101807.94
2023-01-03T22:46:37.587Z,101812.41
2023-01-03T22:49:04.577Z,101807.28
2023-01-03T22:51:31.568Z,101813.88
2023-01-03T22:53:58.719Z,101801.16
2023-01-03T22:56:25.651Z,101816.16
2023-01-03T22:58:52.619Z,101806.34
2023-01-03T23:01:27.511Z,101799.84
2023-01-03T23:04:00.200Z,101788.97
2023-01-03T23:06:29.910Z,101785.81
2023-01-03T23:08:57.752Z,101790.75
2023-01-03T23:11:46.640Z,101798.09
2023-01-03T23:14:17.399Z,101784.44
2023-01-03T23:16:45.706Z,101784.63
2023-01-03T23:19:15.873Z,101790.19
2023-01-03T23:21:45.452Z,101801.44
2023-01-03T23:24:22.445Z,101785.78
2023-01-03T23:26:50.935Z,101772.53
2023-01-03T23:29:18.376Z,101790.19
2023-01-03T23:31:45.595Z,101777.00
2023-01-03T23:34:13.259Z,101775.06
2023-01-03T23:36:43.107Z,101772.16
2023-01-03T23:39:17.032Z,101763.75
2023-01-03T23:41:45.181Z,101759.75
2023-01-03T23:44:12.774Z,101756.88
2023-01-03T23:46:39.889Z,101761.34
2023-01-03T23:49:06.850Z,101760.63
2023-01-03T23:51:33.803Z,101752.03
2023-01-03T23:54:00.761Z,101741.63
2023-01-03T23:56:27.781Z,101732.19
2023-01-03T23:58:54.728Z,101729.34
